Time;durP1;ratioP1;P1;durP2;ratioP2;P2;SDS_P1;SDS_P2;PMS_P1;PMS_P2;Temp;Humidity;BMP_temperature;BMP_pressure;BME280_temperature;BME280_humidity;BME280_pressure;Samples;Min_cycle;Max_cycle;Signal;HPM_P1;HPM_P2
2023/06/11 00:00:02;;;;;;;25.80;16.27;;;18.90;99.90;;;;;;5051972;28;20182;-71
2023/06/11 00:02:32;;;;;;;27.52;16.20;;;18.80;99.90;;;;;;5051798;28;20169;-71
2023/06/11 00:05:07;;;;;;;21.33;16.00;;;18.80;99.90;;;;;;5051706;28;20177;-71
2023/06/11 00:07:34;;;;;;;27.33;15.95;;;18.80;99.90;;;;;;5054026;28;20185;-71
2023/06/11 00:10:04;;;;;;;26.65;17.08;;;18.80;99.90;;;;;;5071683;28;20268;-71
2023/06/11 00:12:32;;;;;;;28.33;17.00;;;18.70;99.90;;;;;;5071523;28;20258;-71
2023/06/11 00:15:01;;;;;;;25.67;16.77;;;18.70;99.90;;;;;;5071482;28;20172;-71
2023/06/11 00:17:27;;;;;;;26.48;18.00;;;18.70;99.90;;;;;;5054104;28;20554;-72
2023/06/11 00:19:53;;;;;;;31.63;17.90;;;18.60;99.90;;;;;;5071729;28;20164;-72
2023/06/11 00:22:18;;;;;;;31.95;18.15;;;18.60;99.90;;;;;;5071491;28;20169;-71
2023/06/11 00:24:44;;;;;;;27.38;18.73;;;18.60;99.90;;;;;;5071279;28;20200;-71
2023/06/11 00:27:10;;;;;;;30.63;18.38;;;18.50;99.90;;;;;;5071376;28;20184;-72
2023/06/11 00:29:35;;;;;;;32.80;18.73;;;18.50;99.90;;;;;;5071610;28;20179;-71
2023/06/11 00:32:01;;;;;;;29.17;19.05;;;18.60;99.90;;;;;;5071137;28;20212;-72
2023/06/11 00:34:27;;;;;;;27.92;17.70;;;18.60;99.90;;;;;;5071377;28;20164;-71
2023/06/11 00:36:53;;;;;;;23.80;17.73;;;18.60;99.90;;;;;;5070925;28;20227;-72
2023/06/11 00:39:19;;;;;;;28.05;18.75;;;18.50;99.90;;;;;;5067550;28;20604;-71
2023/06/11 00:41:48;;;;;;;28.65;18.02;;;18.40;99.90;;;;;;5051079;28;20655;-71
2023/06/11 00:44:21;;;;;;;29.63;19.02;;;18.40;99.90;;;;;;5051162;28;20234;-72
2023/06/11 00:46:48;;;;;;;27.85;18.75;;;18.30;99.90;;;;;;5050981;28;20173;-72
2023/06/11 00:49:14;;;;;;;26.65;17.63;;;18.40;99.90;;;;;;5051225;28;20537;-75
2023/06/11 00:51:41;;;;;;;29.88;19.05;;;18.40;99.90;;;;;;5050994;28;20205;-72
2023/06/11 00:54:12;;;;;;;28.25;18.67;;;18.40;99.90;;;;;;5050476;28;20177;-72
2023/06/11 00:56:39;;;;;;;29.02;18.83;;;18.50;99.90;;;;;;5050952;28;20181;-72
2023/06/11 00:59:06;;;;;;;27.25;17.95;;;18.50;99.90;;;;;;5050882;28;20166;-77
2023/06/11 01:01:41;;;;;;;27.40;17.10;;;18.40;99.90;;;;;;5051057;28;20162;-77
2023/06/11 01:04:11;;;;;;;25.30;16.92;;;18.50;99.90;;;;;;5034965;28;20646;-77
2023/06/11 01:06:37;;;;;;;23.02;17.00;;;18.50;99.90;;;;;;5051164;28;20227;-77
2023/06/11 01:09:04;;;;;;;28.17;19.15;;;18.40;99.90;;;;;;5051261;28;20181;-77
2023/06/11 01:11:32;;;;;;;33.65;19.77;;;18.40;99.90;;;;;;5050797;28;20243;-77
2023/06/11 01:13:58;;;;;;;31.55;20.98;;;18.40;99.90;;;;;;5050794;28;20177;-76
2023/06/11 01:16:37;;;;;;;35.05;22.10;;;18.40;99.90;;;;;;5050981;28;20253;-76
2023/06/11 01:19:12;;;;;;;38.05;23.38;;;18.50;99.90;;;;;;5051094;28;20228;-77
2023/06/11 01:21:46;;;;;;;39.38;23.85;;;18.50;99.90;;;;;;5051194;28;20204;-71
2023/06/11 01:24:26;;;;;;;37.95;23.83;;;18.50;99.90;;;;;;5050813;28;20180;-72
2023/06/11 01:27:27;;;;;;;35.50;23.25;;;18.60;99.90;;;;;;5032858;28;20650;-76
2023/06/11 01:29:55;;;;;;;39.67;24.63;;;18.60;99.90;;;;;;5006529;28;20542;-76
2023/06/11 01:32:23;;;;;;;40.15;24.92;;;18.70;99.90;;;;;;5050629;28;20212;-76
2023/06/11 01:34:49;;;;;;;41.38;25.42;;;18.60;99.90;;;;;;5051021;28;20291;-75
2023/06/11 01:37:15;;;;;;;37.63;24.33;;;18.60;99.90;;;;;;5050722;28;20228;-76
2023/06/11 01:39:45;;;;;;;37.45;25.05;;;18.60;99.90;;;;;;5066441;28;20230;-76
2023/06/11 01:42:11;;;;;;;41.17;25.75;;;18.60;99.90;;;;;;5068456;28;20228;-74
2023/06/11 01:44:37;;;;;;;42.30;26.45;;;18.60;99.90;;;;;;5066855;28;20181;-74
2023/06/11 01:47:03;;;;;;;46.58;27.88;;;18.60;99.90;;;;;;5068725;28;20522;-74
2023/06/11 01:49:28;;;;;;;42.53;26.15;;;18.60;99.90;;;;;;5064122;28;20185;-75
2023/06/11 01:51:54;;;;;;;41.35;26.27;;;18.60;99.90;;;;;;5051792;28;20271;-76
2023/06/11 01:54:20;;;;;;;45.63;28.08;;;18.70;99.90;;;;;;5051620;28;20177;-75
2023/06/11 01:56:46;;;;;;;49.40;28.45;;;18.70;99.90;;;;;;5058057;28;20229;-75
2023/06/11 01:59:12;;;;;;;40.50;26.80;;;18.70;99.90;;;;;;5070762;28;20207;-76
2023/06/11 02:01:40;;;;;;;41.40;27.60;;;18.70;99.90;;;;;;5071025;28;20181;-75
2023/06/11 02:04:06;;;;;;;46.55;29.25;;;18.70;99.90;;;;;;5070842;28;20302;-74
2023/06/11 02:06:32;;;;;;;43.58;28.70;;;18.70;99.90;;;;;;5071447;28;20602;-76
2023/06/11 02:08:57;;;;;;;43.45;29.40;;;18.70;99.90;;;;;;5074266;28;20627;-76
2023/06/11 02:11:23;;;;;;;46.20;27.98;;;18.70;99.90;;;;;;5073891;28;20223;-76
2023/06/11 02:13:48;;;;;;;40.80;26.33;;;18.70;99.90;;;;;;5071725;28;20267;-75
2023/06/11 02:16:14;;;;;;;38.38;27.40;;;18.70;99.90;;;;;;5061888;28;20657;-76
2023/06/11 02:18:40;;;;;;;40.55;26.98;;;18.60;99.90;;;;;;5073764;28;20246;-76
2023/06/11 02:21:05;;;;;;;42.78;27.55;;;18.60;99.90;;;;;;5062508;28;20205;-75
2023/06/11 02:23:31;;;;;;;44.05;27.52;;;18.60;99.90;;;;;;5053753;28;20532;-74
2023/06/11 02:25:56;;;;;;;46.05;29.25;;;18.60;99.90;;;;;;5053529;28;20210;-73
2023/06/11 02:28:22;;;;;;;46.20;29.48;;;18.70;99.90;;;;;;5053429;28;20561;-74
2023/06/11 02:30:47;;;;;;;47.53;28.90;;;18.70;99.90;;;;;;5053574;28;20220;-74
2023/06/11 02:33:13;;;;;;;45.83;28.08;;;18.70;99.90;;;;;;5053259;28;20170;-73
2023/06/11 02:35:39;;;;;;;47.00;28.90;;;18.70;99.90;;;;;;5053131;28;20256;-74
2023/06/11 02:38:04;;;;;;;46.75;27.20;;;18.70;99.90;;;;;;5053244;28;20200;-72
2023/06/11 02:40:30;;;;;;;43.22;27.05;;;18.60;99.90;;;;;;5053345;28;20205;-72
2023/06/11 02:42:56;;;;;;;42.75;27.45;;;18.60;99.90;;;;;;5068642;28;20256;-72
2023/06/11 02:45:21;;;;;;;40.80;26.75;;;18.60;99.90;;;;;;5053384;28;20584;-71
2023/06/11 02:47:47;;;;;;;41.92;26.85;;;18.50;99.90;;;;;;5053098;28;20176;-70
2023/06/11 02:50:13;;;;;;;40.92;26.58;;;18.50;99.90;;;;;;5052942;28;20168;-70
2023/06/11 02:52:38;;;;;;;44.85;28.40;;;18.60;99.90;;;;;;5052870;28;20242;-71
2023/06/11 02:55:04;;;;;;;42.70;27.95;;;18.60;99.90;;;;;;5052941;28;20161;-71
2023/06/11 02:57:30;;;;;;;43.47;28.38;;;18.60;99.90;;;;;;5053103;28;20174;-71
2023/06/11 02:59:55;;;;;;;40.47;26.63;;;18.50;99.90;;;;;;5053577;28;20177;-75
2023/06/11 03:02:21;;;;;;;52.88;29.77;;;;;;;;;;5070496;28;20632;-71
2023/06/11 03:04:47;;;;;;;43.13;28.60;;;18.50;99.90;;;;;;5052146;28;20178;-71
2023/06/11 03:07:13;;;;;;;44.50;28.25;;;18.50;99.90;;;;;;5053031;28;20180;-69
2023/06/11 03:09:38;;;;;;;40.35;28.60;;;18.50;99.90;;;;;;5056830;28;20230;-69
2023/06/11 03:12:05;;;;;;;43.45;28.33;;;18.40;99.90;;;;;;5061003;28;20211;-69
2023/06/11 03:14:31;;;;;;;38.15;27.88;;;18.40;99.90;;;;;;5072518;28;20173;-73
2023/06/11 03:16:56;;;;;;;40.72;27.83;;;18.30;99.90;;;;;;5055853;28;20643;-73
2023/06/11 03:19:22;;;;;;;42.15;28.67;;;18.30;99.90;;;;;;5073364;28;20172;-74
2023/06/11 03:21:48;;;;;;;48.08;29.95;;;18.30;99.90;;;;;;5055809;28;20541;-72
2023/06/11 03:24:14;;;;;;;46.85;30.17;;;18.30;99.90;;;;;;5052633;28;20208;-74
2023/06/11 03:26:39;;;;;;;45.67;29.33;;;18.30;99.90;;;;;;5052572;28;20213;-75
2023/06/11 03:29:05;;;;;;;44.63;28.63;;;18.30;99.90;;;;;;5068703;28;20180;-74
2023/06/11 03:31:31;;;;;;;42.33;28.30;;;18.30;99.90;;;;;;5067197;28;20212;-74
2023/06/11 03:33:56;;;;;;;41.72;28.85;;;18.30;99.90;;;;;;5072140;28;20173;-73
2023/06/11 03:36:22;;;;;;;44.97;29.63;;;18.30;99.90;;;;;;5055034;28;20217;-73
2023/06/11 03:38:48;;;;;;;43.88;29.13;;;18.30;99.90;;;;;;5051955;28;20209;-73
2023/06/11 03:41:13;;;;;;;42.50;29.92;;;18.30;99.90;;;;;;5052107;28;20181;-73
2023/06/11 03:43:39;;;;;;;47.65;30.10;;;18.30;99.90;;;;;;5063538;28;20279;-73
2023/06/11 03:46:05;;;;;;;46.42;29.75;;;18.20;99.90;;;;;;5072179;28;20169;-73
2023/06/11 03:48:30;;;;;;;44.08;31.25;;;18.20;99.90;;;;;;5071813;28;20252;-73
2023/06/11 03:50:56;;;;;;;40.35;30.30;;;18.20;99.90;;;;;;5061785;28;20227;-72
2023/06/11 03:53:22;;;;;;;50.88;31.77;;;18.10;99.90;;;;;;5052079;28;20224;-72
2023/06/11 03:55:47;;;;;;;47.42;30.58;;;18.00;99.90;;;;;;5064722;28;20538;-71
2023/06/11 03:58:13;;;;;;;44.40;30.33;;;18.00;99.90;;;;;;5063534;28;20181;-72
2023/06/11 04:00:39;;;;;;;47.08;30.83;;;18.10;99.90;;;;;;5063352;28;20768;-72
2023/06/11 04:03:04;;;;;;;43.85;30.67;;;18.10;99.90;;;;;;5071662;28;20518;-73
2023/06/11 04:05:35;;;;;;;48.35;31.65;;;18.10;99.90;;;;;;5071484;28;20202;-73
2023/06/11 04:08:00;;;;;;;48.15;31.67;;;18.00;99.90;;;;;;5066355;28;20180;-73
2023/06/11 04:10:26;;;;;;;48.05;30.05;;;18.00;99.90;;;;;;5051554;28;20271;-72
2023/06/11 04:12:52;;;;;;;46.45;30.95;;;18.00;99.90;;;;;;5051713;28;20165;-72
2023/06/11 04:15:17;;;;;;;48.47;30.85;;;18.10;99.90;;;;;;5061086;28;20263;-70
2023/06/11 04:17:43;;;;;;;48.97;32.13;;;18.10;99.90;;;;;;5071716;28;20601;-71
2023/06/11 04:20:09;;;;;;;47.17;31.15;;;18.10;99.90;;;;;;5067356;28;20704;-70
2023/06/11 04:22:35;;;;;;;48.70;29.75;;;18.00;99.90;;;;;;5065954;28;20211;-70
2023/06/11 04:25:00;;;;;;;45.38;30.25;;;18.00;99.90;;;;;;5080310;28;20230;-70
2023/06/11 04:27:26;;;;;;;49.33;29.88;;;18.00;99.90;;;;;;5075646;28;20214;-73
2023/06/11 04:29:56;;;;;;;48.65;30.23;;;18.00;99.90;;;;;;5071711;28;20535;-73
2023/06/11 04:32:26;;;;;;;48.63;30.25;;;17.90;99.90;;;;;;5072041;28;20237;-72
2023/06/11 04:34:53;;;;;;;49.53;31.85;;;17.90;99.90;;;;;;5071539;28;20172;-72
2023/06/11 04:37:19;;;;;;;47.53;29.48;;;17.90;99.90;;;;;;5071162;28;20220;-71
2023/06/11 04:39:45;;;;;;;44.75;29.70;;;17.90;99.90;;;;;;5071021;28;20169;-71
2023/06/11 04:42:14;;;;;;;47.70;29.40;;;17.80;99.90;;;;;;5071202;28;20192;-70
2023/06/11 04:44:39;;;;;;;45.35;31.48;;;17.90;99.90;;;;;;5071439;28;20181;-71
2023/06/11 04:47:06;;;;;;;46.55;29.80;;;17.90;99.90;;;;;;5071110;28;20581;-71
2023/06/11 04:49:32;;;;;;;43.80;30.35;;;17.90;99.90;;;;;;5071087;28;20226;-70
2023/06/11 04:51:58;;;;;;;45.10;30.20;;;17.90;99.90;;;;;;5071049;28;20227;-69
2023/06/11 04:54:24;;;;;;;44.50;30.55;;;17.80;99.90;;;;;;5070895;28;20160;-70
2023/06/11 04:56:49;;;;;;;50.97;31.08;;;17.80;99.90;;;;;;5070871;28;20180;-71
2023/06/11 04:59:15;;;;;;;46.08;29.20;;;17.80;99.90;;;;;;5071081;28;20177;-71
2023/06/11 05:01:46;;;;;;;53.08;31.50;;;17.90;99.90;;;;;;5071077;28;20631;-70
2023/06/11 05:04:15;;;;;;;49.90;30.33;;;17.90;99.90;;;;;;5071101;28;20620;-72
2023/06/11 05:06:44;;;;;;;43.63;30.63;;;17.90;99.90;;;;;;5070879;28;20168;-70
2023/06/11 05:09:11;;;;;;;51.65;31.20;;;17.90;99.90;;;;;;5070711;28;20172;-70
2023/06/11 05:11:37;;;;;;;45.95;30.17;;;17.90;99.90;;;;;;5070981;28;20223;-70
2023/06/11 05:14:02;;;;;;;48.83;30.23;;;17.90;99.90;;;;;;5070985;28;20180;-71
2023/06/11 05:16:28;;;;;;;47.55;31.90;;;17.90;99.90;;;;;;5060910;28;20632;-72
2023/06/11 05:18:54;;;;;;;47.53;31.65;;;17.90;99.90;;;;;;5050837;28;20192;-70
2023/06/11 05:21:20;;;;;;;51.88;32.22;;;17.90;99.90;;;;;;5051449;28;20666;-70
2023/06/11 05:23:45;;;;;;;48.83;32.70;;;17.90;99.90;;;;;;5068518;28;20628;-70
2023/06/11 05:26:14;;;;;;;47.65;32.80;;;18.00;99.90;;;;;;5053920;28;20227;-73
2023/06/11 05:28:40;;;;;;;49.35;32.38;;;18.00;99.90;;;;;;5050506;28;20650;-72
2023/06/11 05:31:06;;;;;;;48.83;33.08;;;18.10;99.90;;;;;;5055300;28;20212;-72
2023/06/11 05:33:32;;;;;;;49.55;33.10;;;18.00;99.90;;;;;;5058856;28;20185;-73
2023/06/11 05:35:57;;;;;;;49.22;32.58;;;18.10;99.90;;;;;;5050259;28;20546;-71
2023/06/11 05:38:28;;;;;;;51.03;33.05;;;18.20;99.90;;;;;;5065982;28;20575;-73
2023/06/11 05:40:54;;;;;;;47.80;31.20;;;18.20;99.90;;;;;;5072591;28;20181;-74
2023/06/11 05:43:20;;;;;;;48.92;32.55;;;18.30;99.90;;;;;;5074411;28;20168;-73
2023/06/11 05:45:49;;;;;;;51.10;31.63;;;17.10;99.90;;;;;;5074582;28;20524;-73
2023/06/11 05:48:16;;;;;;;46.88;31.50;;;18.30;99.90;;;;;;5074360;28;20663;-74
2023/06/11 05:50:42;;;;;;;47.70;31.55;;;18.40;99.90;;;;;;5074083;28;20880;-73
2023/06/11 05:53:09;;;;;;;48.75;31.45;;;18.30;99.90;;;;;;5074363;28;20176;-72
2023/06/11 05:55:37;;;;;;;47.67;33.22;;;18.40;99.90;;;;;;5074204;28;20173;-72
2023/06/11 05:58:03;;;;;;;47.35;31.27;;;18.50;99.90;;;;;;5074153;28;20195;-71
2023/06/11 06:00:29;;;;;;;43.67;30.38;;;18.50;99.90;;;;;;5074178;28;20165;-71
2023/06/11 06:02:55;;;;;;;40.35;30.10;;;18.60;99.90;;;;;;5074119;28;20200;-71
2023/06/11 06:05:21;;;;;;;46.95;30.77;;;18.60;99.90;;;;;;5074422;28;20551;-73
2023/06/11 06:07:47;;;;;;;41.15;31.70;;;18.60;99.90;;;;;;5074077;28;20173;-72
2023/06/11 06:10:12;;;;;;;49.13;30.55;;;18.70;99.90;;;;;;5074024;28;20173;-74
2023/06/11 06:12:38;;;;;;;51.30;32.22;;;18.60;99.90;;;;;;5073917;28;20583;-72
2023/06/11 06:15:04;;;;;;;46.47;31.15;;;18.70;99.90;;;;;;5074302;28;20211;-73
2023/06/11 06:17:30;;;;;;;45.05;30.50;;;18.70;99.90;;;;;;5073932;28;20218;-68
2023/06/11 06:19:55;;;;;;;45.95;31.05;;;18.80;99.90;;;;;;5073584;28;20172;-68
2023/06/11 06:22:21;;;;;;;48.35;31.08;;;18.90;99.90;;;;;;5073608;28;20627;-68
2023/06/11 06:24:46;;;;;;;42.47;28.98;;;18.90;99.90;;;;;;5073470;28;20223;-68
2023/06/11 06:27:12;;;;;;;48.85;30.90;;;19.00;99.90;;;;;;5073514;28;20203;-68
2023/06/11 06:29:38;;;;;;;45.67;30.50;;;19.00;99.90;;;;;;5073544;28;20558;-68
2023/06/11 06:32:08;;;;;;;45.35;28.45;;;19.00;99.90;;;;;;5062050;28;20209;-67
2023/06/11 06:34:34;;;;;;;43.38;29.10;;;19.00;99.90;;;;;;5061356;28;20171;-68
2023/06/11 06:37:00;;;;;;;46.20;30.15;;;19.10;99.90;;;;;;5073199;28;20533;-68
2023/06/11 06:39:26;;;;;;;43.15;29.67;;;19.00;99.90;;;;;;5060214;28;20177;-69
2023/06/11 06:41:52;;;;;;;43.75;29.75;;;19.10;99.90;;;;;;5057919;28;20189;-68
2023/06/11 06:44:18;;;;;;;44.47;30.60;;;19.10;99.90;;;;;;5073100;28;20250;-67
2023/06/11 06:46:43;;;;;;;41.35;28.60;;;19.20;99.90;;;;;;5072798;28;20303;-67
2023/06/11 06:49:09;;;;;;;46.25;29.17;;;19.10;99.90;;;;;;5073185;28;20282;-68
2023/06/11 06:51:37;;;;;;;44.55;30.45;;;19.20;99.90;;;;;;5061439;28;20217;-68
2023/06/11 06:54:03;;;;;;;41.97;29.33;;;19.20;99.90;;;;;;5052872;28;20174;-69
2023/06/11 06:56:28;;;;;;;44.17;29.75;;;19.30;99.90;;;;;;5052942;28;20191;-70
2023/06/11 06:58:54;;;;;;;45.92;29.33;;;19.30;99.90;;;;;;5060049;28;20169;-70
2023/06/11 07:01:20;;;;;;;48.33;28.83;;;19.40;99.90;;;;;;5072965;28;20655;-70
2023/06/11 07:03:45;;;;;;;45.90;28.88;;;19.40;99.90;;;;;;5073106;28;20632;-71
2023/06/11 07:06:11;;;;;;;45.75;30.17;;;19.40;99.90;;;;;;5081653;28;20175;-72
2023/06/11 07:08:38;;;;;;;44.05;28.92;;;19.50;99.90;;;;;;5083706;28;20221;-72
2023/06/11 07:11:04;;;;;;;50.97;30.52;;;19.60;99.90;;;;;;5082014;28;20293;-64
2023/06/11 07:13:30;;;;;;;47.17;29.08;;;19.60;99.90;;;;;;5069499;28;20172;-67
2023/06/11 07:15:55;;;;;;;44.72;29.08;;;19.70;99.90;;;;;;5072502;28;20181;-66
2023/06/11 07:18:21;;;;;;;43.35;28.92;;;19.70;99.90;;;;;;5070603;28;20540;-66
2023/06/11 07:20:47;;;;;;;48.88;29.75;;;19.70;99.90;;;;;;5072088;28;20537;-66
2023/06/11 07:23:13;;;;;;;42.83;29.00;;;19.70;99.90;;;;;;5068081;28;20185;-66
2023/06/11 07:25:38;;;;;;;43.10;27.98;;;19.80;99.90;;;;;;5052528;28;20659;-69
2023/06/11 07:28:05;;;;;;;48.70;29.35;;;19.80;99.90;;;;;;5052478;28;20640;-70
2023/06/11 07:30:32;;;;;;;42.67;27.90;;;19.80;99.90;;;;;;5067009;28;20627;-68
2023/06/11 07:32:59;;;;;;;45.42;28.52;;;19.80;99.90;;;;;;5067251;28;20214;-68
2023/06/11 07:35:26;;;;;;;41.63;27.58;;;19.80;99.90;;;;;;5063308;28;20185;-66
2023/06/11 07:37:52;;;;;;;40.28;26.60;;;19.80;99.90;;;;;;5069674;28;20216;-67
2023/06/11 07:40:18;;;;;;;36.47;24.35;;;19.80;99.90;;;;;;5072448;28;20186;-67
2023/06/11 07:42:45;;;;;;;39.15;23.23;;;19.80;99.90;;;;;;5072405;28;20184;-66
2023/06/11 07:45:12;;;;;;;36.20;23.67;;;19.90;99.90;;;;;;5072677;28;20192;-67
2023/06/11 07:47:38;;;;;;;33.65;22.48;;;19.80;99.90;;;;;;5072221;28;20172;-66
2023/06/11 07:50:05;;;;;;;37.67;22.58;;;19.90;99.90;;;;;;5072810;28;20539;-66
2023/06/11 07:52:31;;;;;;;36.38;23.10;;;19.90;99.90;;;;;;5073169;28;20201;-68
2023/06/11 07:54:56;;;;;;;37.10;21.77;;;19.80;99.90;;;;;;5073643;28;20663;-68
2023/06/11 07:57:22;;;;;;;44.60;23.23;;;19.90;99.90;;;;;;5058833;28;20646;-67
2023/06/11 07:59:48;;;;;;;36.53;21.92;;;19.90;99.90;;;;;;5053449;28;20177;-68
2023/06/11 08:02:14;;;;;;;36.97;23.02;;;20.10;99.90;;;;;;5052757;28;20208;-67
2023/06/11 08:04:40;;;;;;;33.17;20.83;;;20.40;99.90;;;;;;5052774;28;20212;-68
2023/06/11 08:07:06;;;;;;;34.88;21.42;;;20.30;99.90;;;;;;5052628;28;20223;-67
2023/06/11 08:09:36;;;;;;;37.55;22.33;;;20.30;99.90;;;;;;5053108;28;20173;-71
2023/06/11 08:12:03;;;;;;;34.58;21.23;;;20.60;99.90;;;;;;5054442;28;20300;-71
2023/06/11 08:14:29;;;;;;;34.00;20.90;;;;;;;;;;5077031;28;20176;-70
2023/06/11 08:16:55;;;;;;;32.85;20.83;;;20.70;99.90;;;;;;5075555;28;20152;-71
2023/06/11 08:19:20;;;;;;;34.58;21.42;;;20.80;99.90;;;;;;5058202;28;20261;-71
2023/06/11 08:21:49;;;;;;;34.40;19.98;;;21.00;99.90;;;;;;5072370;28;20200;-70
2023/06/11 08:24:16;;;;;;;37.88;21.48;;;21.20;99.90;;;;;;5074105;28;20169;-71
2023/06/11 08:26:42;;;;;;;34.20;22.25;;;21.40;99.90;;;;;;5060885;28;20222;-69
2023/06/11 08:29:07;;;;;;;32.63;21.08;;;21.70;99.90;;;;;;5052580;28;20169;-70
2023/06/11 08:31:33;;;;;;;33.70;20.25;;;21.70;99.90;;;;;;5053757;28;20298;-69
2023/06/11 08:33:59;;;;;;;33.28;21.48;;;21.40;99.90;;;;;;5051458;28;20165;-70
2023/06/11 08:36:26;;;;;;;35.95;21.20;;;21.40;99.90;;;;;;5062285;28;20220;-71
2023/06/11 08:38:51;;;;;;;37.60;22.10;;;21.40;99.90;;;;;;5063627;28;20193;-66
2023/06/11 08:41:17;;;;;;;34.67;22.55;;;21.50;99.90;;;;;;5059549;28;20286;-65
2023/06/11 08:43:43;;;;;;;36.58;22.40;;;21.60;99.90;;;;;;5071093;28;20628;-66
2023/06/11 08:46:15;;;;;;;36.30;21.85;;;21.70;99.90;;;;;;5071153;28;20642;-65
2023/06/11 08:48:43;;;;;;;36.60;21.88;;;21.50;99.90;;;;;;5070909;28;20185;-66
2023/06/11 08:51:12;;;;;;;32.35;21.98;;;21.70;99.90;;;;;;5070986;28;20206;-67
2023/06/11 08:53:39;;;;;;;34.80;22.20;;;21.70;99.90;;;;;;5071181;28;20689;-68
2023/06/11 08:56:08;;;;;;;35.22;22.67;;;21.70;99.90;;;;;;5070716;28;20184;-66
2023/06/11 08:58:35;;;;;;;37.55;23.52;;;21.50;99.90;;;;;;5064291;28;20173;-71
2023/06/11 09:01:11;;;;;;;35.63;22.45;;;21.50;99.90;;;;;;5050755;28;20176;-70
2023/06/11 09:03:37;;;;;;;38.08;23.98;;;21.40;99.90;;;;;;5062032;28;20176;-69
2023/06/11 09:06:04;;;;;;;34.03;24.20;;;21.60;99.90;;;;;;5070172;28;20647;-65
2023/06/11 09:08:30;;;;;;;41.33;24.45;;;21.30;99.90;;;;;;5061238;28;20301;-64
2023/06/11 09:10:55;;;;;;;38.55;24.90;;;21.30;99.90;;;;;;5050251;28;20698;-64
2023/06/11 09:13:25;;;;;;;36.65;24.92;;;21.30;99.90;;;;;;5054133;28;20286;-63
2023/06/11 09:15:53;;;;;;;43.70;26.02;;;21.10;99.90;;;;;;5061012;28;20654;-64
2023/06/11 09:18:22;;;;;;;41.75;24.63;;;21.20;99.90;;;;;;5074768;28;20187;-64
2023/06/11 09:20:52;;;;;;;39.45;25.67;;;21.30;99.90;;;;;;5074716;28;20187;-64
2023/06/11 09:23:25;;;;;;;42.05;25.52;;;21.30;99.90;;;;;;5074404;28;20165;-63
2023/06/11 09:25:51;;;;;;;40.08;26.02;;;21.30;99.90;;;;;;5072278;28;20172;-64
2023/06/11 09:28:16;;;;;;;38.72;24.55;;;21.00;99.90;;;;;;5060808;28;20165;-64
2023/06/11 09:30:53;;;;;;;38.85;25.17;;;21.00;99.90;;;;;;5057584;28;20298;-66
2023/06/11 09:33:18;;;;;;;38.67;25.35;;;21.10;99.90;;;;;;5054407;28;20177;-64
2023/06/11 09:35:45;;;;;;;38.45;25.50;;;21.10;99.90;;;;;;5054859;28;20710;-65
2023/06/11 09:38:18;;;;;;;39.15;25.75;;;21.00;99.90;;;;;;5060523;28;20181;-64
2023/06/11 09:40:52;;;;;;;35.25;24.45;;;21.00;99.90;;;;;;5065617;28;20177;-64
2023/06/11 09:43:23;;;;;;;39.58;25.48;;;21.20;99.90;;;;;;5073938;28;20198;-64
2023/06/11 09:45:53;;;;;;;35.85;25.45;;;21.20;99.90;;;;;;5073861;28;20218;-64
2023/06/11 09:48:20;;;;;;;40.05;24.98;;;21.30;99.90;;;;;;5072307;28;20249;-64
2023/06/11 09:50:49;;;;;;;43.30;24.95;;;21.30;99.90;;;;;;5073813;28;20218;-64
2023/06/11 09:53:15;;;;;;;38.50;24.45;;;21.50;99.90;;;;;;5060270;28;20243;-68
2023/06/11 09:55:41;;;;;;;37.22;25.98;;;21.20;99.90;;;;;;5055495;28;20180;-65
2023/06/11 09:58:08;;;;;;;37.40;25.67;;;21.30;99.90;;;;;;5054765;28;20256;-65
2023/06/11 10:00:34;;;;;;;42.05;25.00;;;21.30;99.90;;;;;;5064994;28;20172;-65
2023/06/11 10:03:00;;;;;;;38.58;24.30;;;21.20;99.90;;;;;;5056058;28;20187;-63
2023/06/11 10:05:27;;;;;;;37.08;25.30;;;21.30;99.90;;;;;;5073869;28;20503;-62
2023/06/11 10:08:05;;;;;;;34.97;25.92;;;21.30;99.90;;;;;;5073763;28;20172;-64
2023/06/11 10:10:35;;;;;;;36.15;25.58;;;21.30;99.90;;;;;;5073578;28;20172;-64
2023/06/11 10:13:01;;;;;;;35.58;26.15;;;21.30;99.90;;;;;;5073514;28;20206;-66
2023/06/11 10:15:31;;;;;;;34.78;25.20;;;21.30;99.90;;;;;;5073430;28;20214;-62
2023/06/11 10:17:57;;;;;;;42.78;26.63;;;21.30;99.90;;;;;;5073562;28;20183;-64
2023/06/11 10:20:35;;;;;;;43.63;27.17;;;20.90;99.90;;;;;;5073718;28;20172;-66
2023/06/11 10:23:11;;;;;;;40.10;26.33;;;21.00;99.90;;;;;;5072249;28;20200;-63
2023/06/11 10:25:41;;;;;;;43.75;26.50;;;21.00;99.90;;;;;;5070581;28;20238;-65
2023/06/11 10:28:09;;;;;;;40.75;26.42;;;21.00;99.90;;;;;;5072329;28;20655;-64
2023/06/11 10:30:35;;;;;;;40.33;26.52;;;21.00;99.90;;;;;;5073000;28;20179;-62
2023/06/11 10:33:01;;;;;;;37.50;26.55;;;;;;;;;;5073370;28;20256;-63
2023/06/11 10:35:32;;;;;;;38.17;26.55;;;21.00;99.90;;;;;;5073351;28;20173;-64
2023/06/11 10:38:07;;;;;;;38.30;26.77;;;20.90;99.90;;;;;;5073165;28;20212;-62
2023/06/11 10:40:34;;;;;;;46.17;27.75;;;20.80;99.90;;;;;;5072960;28;20550;-64
2023/06/11 10:43:00;;;;;;;47.00;27.85;;;20.80;99.90;;;;;;5073060;28;20207;-63
2023/06/11 10:45:38;;;;;;;44.55;27.60;;;20.80;99.90;;;;;;5057333;28;20208;-63
2023/06/11 10:48:04;;;;;;;38.53;26.65;;;20.90;99.90;;;;;;5063567;28;20168;-63
2023/06/11 10:50:31;;;;;;;38.97;28.83;;;20.90;99.90;;;;;;5072929;28;20173;-61
2023/06/11 10:53:03;;;;;;;37.70;26.83;;;21.00;99.90;;;;;;5072733;28;20185;-63
2023/06/11 10:55:30;;;;;;;41.83;27.88;;;21.00;99.90;;;;;;5072268;28;20177;-62
2023/06/11 10:57:57;;;;;;;40.13;27.50;;;21.20;99.90;;;;;;5072995;28;20184;-62
2023/06/11 11:00:23;;;;;;;37.92;26.13;;;21.30;99.90;;;;;;5054878;28;20667;-63
2023/06/11 11:02:50;;;;;;;40.25;26.83;;;21.30;99.90;;;;;;5052807;28;20222;-62
2023/06/11 11:05:16;;;;;;;38.38;26.80;;;21.30;99.90;;;;;;5052751;28;20173;-62
2023/06/11 11:07:45;;;;;;;38.13;26.17;;;21.30;99.90;;;;;;5054412;28;20618;-63
2023/06/11 11:10:18;;;;;;;40.72;25.23;;;21.30;99.90;;;;;;5067736;28;20176;-63
2023/06/11 11:12:48;;;;;;;39.55;27.38;;;21.30;99.90;;;;;;5073388;28;20616;-63
2023/06/11 11:15:14;;;;;;;40.47;25.23;;;21.40;99.90;;;;;;5072432;28;20696;-63
2023/06/11 11:17:41;;;;;;;37.78;25.67;;;20.50;99.90;;;;;;5072486;28;20325;-62
2023/06/11 11:20:12;;;;;;;33.03;23.35;;;21.70;99.90;;;;;;5072434;28;20161;-62
2023/06/11 11:22:38;;;;;;;35.35;21.33;;;21.80;99.90;;;;;;5073539;28;20233;-63
2023/06/11 11:25:06;;;;;;;35.78;20.65;;;21.70;99.90;;;;;;5066408;28;20275;-62
2023/06/11 11:27:34;;;;;;;30.58;18.00;;;21.60;99.90;;;;;;5068382;28;20200;-62
2023/06/11 11:30:02;;;;;;;25.42;15.30;;;21.30;99.90;;;;;;5067759;28;20622;-62
2023/06/11 11:32:33;;;;;;;23.90;14.88;;;21.30;99.90;;;;;;5081109;28;20216;-62
2023/06/11 11:35:04;;;;;;;22.60;14.60;;;21.10;99.90;;;;;;5076852;28;20246;-61
2023/06/11 11:37:30;;;;;;;24.95;16.48;;;20.80;99.90;;;;;;5078548;28;20223;-62
2023/06/11 11:40:00;;;;;;;26.38;16.30;;;20.70;99.90;;;;;;5083592;28;20173;-61
2023/06/11 11:42:25;;;;;;;24.10;16.17;;;20.70;99.90;;;;;;5056312;28;20173;-61
2023/06/11 11:44:57;;;;;;;22.75;15.10;;;20.80;99.90;;;;;;5071281;28;20195;-61
2023/06/11 11:47:27;;;;;;;28.25;17.05;;;20.80;99.90;;;;;;5092209;28;20171;-61
2023/06/11 11:49:54;;;;;;;26.08;17.38;;;20.90;99.90;;;;;;5072553;28;20250;-61
2023/06/11 11:52:21;;;;;;;31.30;16.80;;;20.90;99.90;;;;;;5062888;28;20208;-62
2023/06/11 11:54:46;;;;;;;27.65;17.00;;;20.70;99.90;;;;;;5090586;28;20179;-61
2023/06/11 11:57:12;;;;;;;28.75;17.83;;;20.70;99.90;;;;;;5086050;28;20512;-62
2023/06/11 11:59:38;;;;;;;27.40;17.15;;;20.80;99.90;;;;;;5071326;28;20176;-62
2023/06/11 12:02:04;;;;;;;25.15;16.95;;;20.60;99.90;;;;;;5083867;28;20225;-62
2023/06/11 12:04:35;;;;;;;26.17;17.60;;;20.80;99.90;;;;;;5062509;28;20177;-62
2023/06/11 12:07:06;;;;;;;29.55;17.08;;;20.70;99.90;;;;;;5051428;28;20193;-64
2023/06/11 12:09:34;;;;;;;24.25;13.98;;;20.90;99.90;;;;;;5051624;28;20161;-62
2023/06/11 12:12:00;;;;;;;18.67;12.43;;;21.00;99.90;;;;;;5070835;28;20218;-61
2023/06/11 12:14:25;;;;;;;20.88;12.43;;;20.90;99.90;;;;;;5071392;28;20543;-64
2023/06/11 12:16:51;;;;;;;20.35;12.10;;;21.00;99.90;;;;;;5071437;28;20203;-63
2023/06/11 12:19:18;;;;;;;22.27;12.88;;;21.10;99.90;;;;;;5071307;28;20536;-63
2023/06/11 12:21:47;;;;;;;24.95;13.30;;;21.20;99.90;;;;;;5071335;28;20187;-62
2023/06/11 12:24:15;;;;;;;21.50;13.68;;;21.30;99.90;;;;;;5071334;28;20179;-62
2023/06/11 12:26:42;;;;;;;22.60;12.68;;;21.50;99.90;;;;;;5071235;28;20181;-62